createdAt,value
2022-08-05T00:00:17.076Z,101591.19
2022-08-05T00:02:51.337Z,101589.94
2022-08-05T00:06:01.458Z,101597.59
2022-08-05T00:08:19.772Z,101598.84
2022-08-05T00:10:52.627Z,101600.38
2022-08-05T00:13:19.854Z,101603.75
2022-08-05T00:15:57.551Z,101608.00
2022-08-05T00:18:26.747Z,101604.84
2022-08-05T00:20:56.046Z,101609.72
2022-08-05T00:23:44.482Z,101609.72
2022-08-05T00:26:10.125Z,101614.63
2022-08-05T00:28:37.218Z,101618.47
2022-08-05T00:31:07.785Z,101617.63
2022-08-05T00:34:56.865Z,101614.22
2022-08-05T00:37:11.599Z,101620.19
2022-08-05T00:39:13.510Z,101617.22
2022-08-05T00:41:51.491Z,101617.22
2022-08-05T00:44:18.818Z,101628.28
2022-08-05T00:46:47.528Z,101623.13
2022-08-05T00:49:21.340Z,101620.16
2022-08-05T00:51:51.873Z,101620.16
2022-08-05T00:54:18.908Z,101618.47
2022-08-05T00:56:53.582Z,101629.09
2022-08-05T00:59:20.201Z,101624.63
2022-08-05T01:01:48.516Z,101613.16
2022-08-05T01:04:15.935Z,101621.44
2022-08-05T01:06:51.737Z,101633.34
2022-08-05T01:09:20.233Z,101636.72
2022-08-05T01:11:50.221Z,101638.00
2022-08-05T01:14:28.238Z,101647.13
2022-08-05T01:17:12.130Z,101655.00
2022-08-05T01:20:00.894Z,101662.84
2022-08-05T01:22:51.198Z,101664.34
2022-08-05T01:25:59.254Z,101662.44
2022-08-05T01:28:51.672Z,101672.41
2022-08-05T01:31:34.434Z,101676.00
2022-08-05T01:34:35.928Z,101687.69
2022-08-05T01:37:06.017Z,101678.78
2022-08-05T01:39:46.609Z,101674.94
2022-08-05T01:42:16.647Z,101670.50
2022-08-05T01:44:45.656Z,101667.09
2022-08-05T01:47:21.657Z,101660.09
2022-08-05T01:50:01.736Z,101656.69
2022-08-05T01:52:30.551Z,101649.91
2022-08-05T01:55:04.349Z,101651.38
2022-08-05T01:58:11.440Z,101641.81
2022-08-05T02:00:21.531Z,101641.00
2022-08-05T02:03:05.249Z,101632.72
2022-08-05T02:05:34.272Z,101635.47
2022-08-05T02:08:01.829Z,101628.44
2022-08-05T02:10:32.400Z,101629.94
2022-08-05T02:13:15.711Z,101630.75
2022-08-05T02:15:55.630Z,101636.09
2022-08-05T02:18:41.810Z,101629.69
2022-08-05T02:21:38.015Z,101631.81
2022-08-05T02:24:14.550Z,101633.28
2022-08-05T02:26:56.591Z,101637.47
2022-08-05T02:29:58.124Z,101637.06
2022-08-05T02:32:23.679Z,101636.63
2022-08-05T02:34:54.921Z,101641.25
2022-08-05T02:37:22.346Z,101635.28
2022-08-05T02:39:51.738Z,101638.25
2022-08-05T02:42:27.354Z,101627.41
2022-08-05T02:44:57.694Z,101635.47
2022-08-05T02:48:07.515Z,101643.53
2022-08-05T02:50:31.013Z,101643.28
2022-08-05T02:52:58.743Z,101656.41
2022-08-05T02:55:53.912Z,101655.53
2022-08-05T02:58:15.044Z,101661.47
2022-08-05T03:00:43.999Z,101667.19
2022-08-05T03:03:19.478Z,101668.44
2022-08-05T03:06:53.879Z,101676.72
2022-08-05T03:08:38.800Z,101673.69
2022-08-05T03:11:56.453Z,101676.88
2022-08-05T03:16:55.873Z,101673.66
2022-08-05T03:19:34.082Z,101671.28
2022-08-05T03:22:04.990Z,101674.44
2022-08-05T03:24:49.577Z,101680.78
2022-08-05T03:27:18.531Z,101679.47
2022-08-05T03:30:07.472Z,101684.53
2022-08-05T03:32:35.783Z,101692.31
2022-08-05T03:35:04.431Z,101693.97
2022-08-05T03:37:41.642Z,101700.09
2022-08-05T03:40:13.246Z,101695.41
2022-08-05T03:42:52.514Z,101694.06
2022-08-05T03:45:21.626Z,101686.41
2022-08-05T03:47:49.589Z,101694.22
2022-08-05T03:50:16.139Z,101695.63
2022-08-05T03:55:53.742Z,101708.13
2022-08-05T03:56:04.725Z,101706.97
2022-08-05T03:58:36.273Z,101692.97
2022-08-05T04:01:05.088Z,101692.91
2022-08-05T04:03:36.058Z,101688.25
2022-08-05T04:06:06.133Z,101687.78
2022-08-05T04:08:36.382Z,101683.91
2022-08-05T04:11:04.636Z,101680.50
2022-08-05T04:13:49.661Z,101683.47
2022-08-05T04:16:25.031Z,101672.47
2022-08-05T04:18:54.049Z,101685.19
2022-08-05T04:22:09.220Z,101679.47
2022-08-05T04:24:22.893Z,101678.25
2022-08-05T04:26:50.069Z,101676.91
2022-08-05T04:29:16.588Z,101682.22
2022-08-05T04:31:43.156Z,101674.16
2022-08-05T04:34:31.151Z,101679.00
2022-08-05T04:36:56.451Z,101679.59
2022-08-05T04:39:23.120Z,101685.56
2022-08-05T04:41:51.151Z,101682.59
2022-08-05T04:44:21.450Z,101678.63
2022-08-05T04:46:57.055Z,101682.16
2022-08-05T04:49:38.925Z,101682.34
2022-08-05T04:52:11.921Z,101682.22
2022-08-05T04:54:38.486Z,101679.09
2022-08-05T04:57:05.208Z,101681.16
2022-08-05T04:59:38.290Z,101673.78
2022-08-05T05:02:37.738Z,101679.28
2022-08-05T05:04:53.085Z,101681.91
2022-08-05T05:07:29.775Z,101679.00
2022-08-05T05:09:59.196Z,101691.78
2022-08-05T05:12:29.206Z,101680.25
2022-08-05T05:14:55.885Z,101687.59
2022-08-05T05:17:24.510Z,101672.97
2022-08-05T05:20:09.739Z,101680.69
2022-08-05T05:22:44.887Z,101676.44
2022-08-05T05:25:16.468Z,101680.16
2022-08-05T05:27:53.503Z,101678.69
2022-08-05T05:30:29.123Z,101681.44
2022-08-05T05:35:42.420Z,101683.44
2022-08-05T05:38:12.926Z,101690.44
2022-08-05T05:40:48.074Z,101690.13
2022-08-05T05:43:27.940Z,101698.22
2022-08-05T05:46:05.153Z,101703.16
2022-08-05T05:48:32.467Z,101704.00
2022-08-05T05:51:05.174Z,101699.16
2022-08-05T05:53:54.062Z,101708.84
2022-08-05T05:56:26.093Z,101705.72
2022-08-05T05:59:02.848Z,101707.25
2022-08-05T06:01:38.045Z,101708.34
2022-08-05T06:04:14.444Z,101699.06
2022-08-05T06:06:42.913Z,101697.59
2022-08-05T06:09:17.430Z,101700.16
2022-08-05T06:11:59.507Z,101702.53
2022-08-05T06:14:29.220Z,101703.81
2022-08-05T06:16:56.825Z,101704.03
2022-08-05T06:19:34.273Z,101699.41
2022-08-05T06:22:06.475Z,101709.19
2022-08-05T06:24:33.982Z,101703.91
2022-08-05T06:27:01.885Z,101697.50
2022-08-05T06:29:52.085Z,101698.56
2022-08-05T06:32:28.798Z,101700.03
2022-08-05T06:34:58.327Z,101699.44
2022-08-05T06:37:57.878Z,101694.06
2022-08-05T06:40:18.370Z,101694.06
2022-08-05T06:42:52.252Z,101700.91
2022-08-05T06:45:21.248Z,101701.31
2022-08-05T06:48:36.080Z,101704.06
2022-08-05T06:51:00.460Z,101715.34
2022-08-05T06:53:28.357Z,101709.81
2022-08-05T06:55:59.689Z,101713.59
2022-08-05T06:58:34.995Z,101706.31
2022-08-05T07:01:05.462Z,101719.91
2022-08-05T07:03:33.330Z,101721.97
2022-08-05T07:06:05.972Z,101719.97
2022-08-05T07:08:47.946Z,101727.69
2022-08-05T07:11:22.370Z,101729.78
2022-08-05T07:14:29.739Z,101736.94
2022-08-05T07:17:58.405Z,101721.69
2022-08-05T07:22:47.942Z,101740.63
2022-08-05T07:25:54.272Z,101742.88
2022-08-05T07:28:09.672Z,101739.03
2022-08-05T07:30:39.874Z,101741.44
2022-08-05T07:33:16.837Z,101745.13
2022-08-05T07:36:03.643Z,101758.44
2022-08-05T07:38:35.698Z,101753.50
2022-08-05T07:42:08.288Z,101765.94
2022-08-05T07:43:59.688Z,101767.06
2022-08-05T07:46:27.406Z,101778.47
2022-08-05T07:49:01.615Z,101771.47
2022-08-05T07:51:40.835Z,101775.81
2022-08-05T07:54:22.044Z,101783.38
2022-08-05T07:57:01.974Z,101789.66
2022-08-05T07:59:41.143Z,101789.19
2022-08-05T08:02:16.554Z,101796.28
2022-08-05T08:04:48.246Z,101796.31
2022-08-05T08:07:16.011Z,101811.56
2022-08-05T08:09:44.508Z,101807.34
2022-08-05T08:12:35.639Z,101808.22
2022-08-05T08:15:02.678Z,101817.56
2022-08-05T08:17:31.003Z,101816.31
2022-08-05T08:25:34.589Z,101832.06
2022-08-05T08:28:06.319Z,101835.97
2022-08-05T08:30:49.629Z,101841.72
2022-08-05T08:33:36.150Z,101844.34
2022-08-05T08:36:29.496Z,101853.88
2022-08-05T08:41:52.215Z,101850.41
2022-08-05T08:45:23.923Z,101858.16
2022-08-05T08:47:47.725Z,101861.19
2022-08-05T08:50:31.695Z,101867.78
2022-08-05T08:52:54.043Z,101880.72
2022-08-05T08:56:03.040Z,101873.94
2022-08-05T08:58:18.043Z,101880.06
2022-08-05T09:03:44.874Z,101894.75
2022-08-05T09:06:15.758Z,101891.75
2022-08-05T09:08:45.183Z,101895.59
2022-08-05T09:14:54.728Z,101904.13
2022-08-05T09:16:48.752Z,101901.13
2022-08-05T09:19:15.659Z,101901.75
2022-08-05T09:22:22.109Z,101896.00
2022-08-05T09:24:37.412Z,101906.88
2022-08-05T09:27:08.793Z,101912.81
2022-08-05T09:29:47.724Z,101910.47
2022-08-05T09:32:45.947Z,101928.13
2022-08-05T09:35:10.652Z,101930.31
2022-08-05T09:38:18.452Z,101934.75
2022-08-05T09:40:44.480Z,101933.47
2022-08-05T09:43:27.938Z,101942.19
2022-08-05T09:49:07.264Z,101939.06
2022-08-05T09:51:42.305Z,101946.72
2022-08-05T09:54:09.460Z,101941.78
2022-08-05T10:04:57.226Z,101962.41
2022-08-05T10:10:15.346Z,101969.19
2022-08-05T10:12:50.401Z,101960.28
2022-08-05T10:15:34.275Z,101957.13
2022-08-05T10:20:44.356Z,101963.31
2022-08-05T10:23:34.485Z,101956.72
2022-08-05T10:26:24.417Z,101960.06
2022-08-05T10:28:59.445Z,101957.09
2022-08-05T10:32:55.080Z,101967.03
2022-08-05T10:34:12.787Z,101961.50
2022-08-05T10:36:41.384Z,101967.03
2022-08-05T10:39:59.333Z,101959.59
2022-08-05T10:42:34.288Z,101958.72
2022-08-05T10:45:01.592Z,101963.56
2022-08-05T10:47:33.288Z,101968.06
2022-08-05T10:50:20.669Z,101961.63
2022-08-05T10:52:58.814Z,101971.34
2022-08-05T10:55:26.011Z,101971.59
2022-08-05T10:58:11.775Z,101972.41
2022-08-05T11:06:15.070Z,101977.03
2022-08-05T11:09:24.464Z,101987.63
2022-08-05T11:11:59.289Z,101994.72
2022-08-05T11:14:57.791Z,101997.09
2022-08-05T11:20:32.498Z,101997.88
2022-08-05T11:23:05.836Z,101992.81
2022-08-05T11:26:04.711Z,101990.78
2022-08-05T11:28:22.232Z,101997.69
2022-08-05T11:31:13.026Z,102003.28
2022-08-05T11:36:52.629Z,102007.38
2022-08-05T11:39:47.979Z,102001.94
2022-08-05T11:42:18.309Z,102012.66
2022-08-05T11:44:53.904Z,102014.75
2022-08-05T11:47:49.728Z,102012.47
2022-08-05T11:50:17.872Z,102019.94
2022-08-05T11:52:57.566Z,102020.81
2022-08-05T11:55:32.100Z,102025.50
2022-08-05T11:58:09.174Z,102022.50
2022-08-05T12:00:38.282Z,102024.69
2022-08-05T12:03:29.284Z,102036.75
2022-08-05T12:06:06.528Z,102031.97
2022-08-05T12:08:49.978Z,102032.53
2022-08-05T12:11:22.662Z,102033.91
2022-08-05T12:13:58.552Z,102035.53
2022-08-05T12:16:28.952Z,102039.09
2022-08-05T12:18:55.830Z,102030.09
2022-08-05T12:24:14.265Z,102048.03
2022-08-05T12:26:59.282Z,102045.94
2022-08-05T12:29:38.848Z,102052.22
2022-08-05T12:34:55.386Z,102047.31
2022-08-05T12:37:23.109Z,102055.00
2022-08-05T12:40:03.626Z,102064.47
2022-08-05T12:42:37.563Z,102064.38
2022-08-05T12:45:08.799Z,102066.81
2022-08-05T12:48:01.470Z,102075.25
2022-08-05T12:50:32.214Z,102072.28
2022-08-05T12:52:59.971Z,102082.25
2022-08-05T12:55:32.976Z,102092.03
2022-08-05T12:58:38.786Z,102090.44
2022-08-05T13:03:32.332Z,102099.63
2022-08-05T13:06:01.223Z,102088.91
2022-08-05T13:08:32.259Z,102107.31
2022-08-05T13:11:00.553Z,102097.13
2022-08-05T13:14:04.667Z,102095.03
2022-08-05T13:16:17.359Z,102099.34
2022-08-05T13:18:57.691Z,102100.09
2022-08-05T13:21:28.555Z,102102.88
2022-08-05T13:26:52.763Z,102114.09
2022-08-05T13:29:37.866Z,102114.09
2022-08-05T13:32:05.490Z,102124.91
2022-08-05T13:34:32.794Z,102116.16
2022-08-05T13:37:00.241Z,102121.78
2022-08-05T13:40:14.151Z,102128.28
2022-08-05T13:42:15.231Z,102138.06
2022-08-05T13:44:46.062Z,102132.13
2022-08-05T13:47:35.795Z,102144.56
2022-08-05T13:50:04.657Z,102144.63
2022-08-05T13:52:35.237Z,102146.41
2022-08-05T13:55:02.485Z,102150.41
2022-08-05T13:57:51.011Z,102154.91
2022-08-05T14:00:28.000Z,102142.97
2022-08-05T14:03:11.607Z,102164.38
2022-08-05T14:06:24.496Z,102156.72
2022-08-05T14:08:27.667Z,102157.47
2022-08-05T14:10:59.637Z,102168.34
2022-08-05T14:13:30.049Z,102181.19
2022-08-05T14:16:06.853Z,102178.16
2022-08-05T14:18:37.924Z,102179.91
2022-08-05T14:22:09.121Z,102180.06
2022-08-05T14:23:51.181Z,102179.66
2022-08-05T14:26:36.741Z,102186.34
2022-08-05T14:29:04.800Z,102198.41
2022-08-05T14:32:03.026Z,102200.25
2022-08-05T14:34:18.596Z,102199.13
2022-08-05T14:36:50.276Z,102206.47
2022-08-05T14:39:23.319Z,102202.09
2022-08-05T14:42:16.708Z,102201.41
2022-08-05T14:44:36.832Z,102206.59
2022-08-05T14:47:03.704Z,102211.81
2022-08-05T14:49:56.330Z,102210.34
2022-08-05T14:52:36.280Z,102214.06
2022-08-05T14:55:03.493Z,102214.84
2022-08-05T14:57:34.123Z,102206.13
2022-08-05T15:00:16.673Z,102213.19
2022-08-05T15:05:29.950Z,102229.03
2022-08-05T15:08:17.924Z,102218.63
2022-08-05T15:11:00.765Z,102216.41
2022-08-05T15:13:28.639Z,102231.28
2022-08-05T15:16:13.185Z,102221.56
2022-08-05T15:18:40.009Z,102231.19
2022-08-05T15:21:08.634Z,102235.94
2022-08-05T15:23:35.265Z,102236.69
2022-08-05T15:26:04.770Z,102239.78
2022-08-05T15:31:20.153Z,102241.81
2022-08-05T15:34:04.813Z,102232.94
2022-08-05T15:36:33.334Z,102238.91
2022-08-05T15:41:02.714Z,102251.69
2022-08-05T15:42:00.601Z,102243.97
2022-08-05T15:44:35.811Z,102235.97
2022-08-05T15:47:04.302Z,102249.50
2022-08-05T15:49:52.064Z,102251.59
2022-08-05T15:52:52.248Z,102248.31
2022-08-05T15:55:16.141Z,102250.53
2022-08-05T15:57:43.262Z,102250.38
2022-08-05T16:00:12.340Z,102243.41
2022-08-05T16:02:43.420Z,102245.09
2022-08-05T16:05:17.924Z,102249.38
2022-08-05T16:07:49.268Z,102254.84
2022-08-05T16:10:16.374Z,102259.81
2022-08-05T16:12:51.703Z,102268.28
2022-08-05T16:15:20.441Z,102261.19
2022-08-05T16:17:58.041Z,102267.31
2022-08-05T16:20:33.369Z,102265.50
2022-08-05T16:23:01.094Z,102272.31
2022-08-05T16:25:34.085Z,102264.41
2022-08-05T16:28:09.666Z,102274.72
2022-08-05T16:30:37.746Z,102269.22
2022-08-05T16:33:04.725Z,102265.13
2022-08-05T16:35:33.632Z,102263.13
2022-08-05T16:38:18.486Z,102275.59
2022-08-05T16:40:59.732Z,102276.44
2022-08-05T16:43:30.469Z,102274.75
2022-08-05T16:46:07.856Z,102280.75
2022-08-05T16:48:43.742Z,102285.31
2022-08-05T16:51:10.924Z,102291.44
2022-08-05T16:54:03.383Z,102286.94
2022-08-05T16:56:26.800Z,102287.28
2022-08-05T16:59:08.701Z,102300.53
2022-08-05T17:01:53.068Z,102297.59
2022-08-05T17:04:21.082Z,102302.84
2022-08-05T17:06:53.150Z,102304.09
2022-08-05T17:09:20.527Z,102304.19
2022-08-05T17:17:15.332Z,102314.09
2022-08-05T17:19:43.898Z,102317.28
2022-08-05T17:22:25.412Z,102327.66
2022-08-05T17:27:33.306Z,102317.50
2022-08-05T17:30:02.411Z,102317.97
2022-08-05T17:32:29.709Z,102315.31
2022-08-05T17:34:58.274Z,102325.13
2022-08-05T17:37:40.003Z,102323.94
2022-08-05T17:40:12.854Z,102329.88
2022-08-05T17:42:42.842Z,102324.88
2022-08-05T17:47:58.441Z,102326.50
2022-08-05T17:50:29.972Z,102333.53
2022-08-05T17:55:40.301Z,102325.69
2022-08-05T17:58:13.185Z,102327.06
2022-08-05T18:00:45.066Z,102326.94
2022-08-05T18:03:56.052Z,102326.94
2022-08-05T18:06:12.404Z,102334.94
2022-08-05T18:08:45.036Z,102340.41
2022-08-05T18:14:04.517Z,102343.84
2022-08-05T18:16:34.596Z,102343.09
2022-08-05T18:19:02.176Z,102339.88
2022-08-05T18:22:07.420Z,102346.19
2022-08-05T18:24:15.467Z,102348.59
2022-08-05T18:26:42.152Z,102358.78
2022-08-05T18:29:10.562Z,102361.53
2022-08-05T18:31:37.262Z,102357.47
2022-08-05T18:34:12.258Z,102364.91
2022-08-05T18:36:39.518Z,102359.00
2022-08-05T18:44:33.118Z,102370.72
2022-08-05T18:47:03.281Z,102373.09
2022-08-05T18:52:33.698Z,102372.94
2022-08-05T18:55:05.728Z,102380.72
2022-08-05T18:57:43.179Z,102374.91
2022-08-05T19:03:03.993Z,102382.72
2022-08-05T19:06:13.611Z,102384.69
2022-08-05T19:08:18.782Z,102385.56
2022-08-05T19:10:45.610Z,102383.91
2022-08-05T19:13:15.926Z,102381.88
2022-08-05T19:15:59.323Z,102391.38
2022-08-05T19:18:27.566Z,102396.69
2022-08-05T19:20:54.410Z,102396.34
2022-08-05T19:24:03.905Z,102404.41
2022-08-05T19:26:09.618Z,102402.44
2022-08-05T19:28:42.079Z,102404.03
2022-08-05T19:33:56.410Z,102405.13
2022-08-05T19:36:29.445Z,102406.50
2022-08-05T19:39:00.645Z,102415.28
2022-08-05T19:42:06.845Z,102420.28
2022-08-05T19:47:10.393Z,102429.81
2022-08-05T19:49:49.399Z,102433.41
2022-08-05T19:52:31.465Z,102436.72
2022-08-05T19:55:00.579Z,102441.72
2022-08-05T19:57:49.057Z,102436.22
2022-08-05T20:00:20.769Z,102445.00
2022-08-05T20:02:47.473Z,102458.22
2022-08-05T20:05:24.462Z,102449.09
2022-08-05T20:07:55.037Z,102453.94
2022-08-05T20:10:24.966Z,102452.91
2022-08-05T20:12:52.068Z,102464.06
2022-08-05T20:15:23.001Z,102461.53
2022-08-05T20:18:10.042Z,102459.06
2022-08-05T20:20:55.044Z,102464.22
2022-08-05T20:23:23.147Z,102466.78
2022-08-05T20:28:30.245Z,102479.84
2022-08-05T20:31:04.473Z,102470.91
2022-08-05T20:33:33.156Z,102480.31
2022-08-05T20:36:01.917Z,102476.19
2022-08-05T20:38:31.387Z,102490.41
2022-08-05T20:41:04.672Z,102500.19
2022-08-05T20:43:58.667Z,102496.91
2022-08-05T20:46:25.189Z,102497.41
2022-08-05T20:51:32.667Z,102498.44
2022-08-05T20:54:01.057Z,102496.84
2022-08-05T20:59:14.249Z,102510.03
2022-08-05T21:01:46.570Z,102512.59
2022-08-05T21:04:21.856Z,102510.88
2022-08-05T21:09:35.194Z,102511.16
2022-08-05T21:12:09.281Z,102509.75
2022-08-05T21:14:46.103Z,102525.69
2022-08-05T21:17:13.393Z,102512.25
2022-08-05T21:19:50.389Z,102515.19
2022-08-05T21:22:17.910Z,102511.03
2022-08-05T21:27:27.178Z,102522.19
2022-08-05T21:29:57.450Z,102524.75
2022-08-05T21:32:26.702Z,102522.00
2022-08-05T21:34:56.040Z,102531.09
2022-08-05T21:37:35.226Z,102519.44
2022-08-05T21:40:13.641Z,102532.63
2022-08-05T21:42:45.208Z,102533.47
2022-08-05T21:47:58.117Z,102535.47
2022-08-05T21:50:26.040Z,102535.63
2022-08-05T21:55:42.965Z,102542.97
2022-08-05T21:58:24.834Z,102535.47
2022-08-05T22:01:05.286Z,102539.41
2022-08-05T22:03:48.905Z,102537.97
2022-08-05T22:06:22.906Z,102539.97
2022-08-05T22:08:51.821Z,102544.91
2022-08-05T22:11:19.346Z,102548.97
2022-08-05T22:14:34.516Z,102547.59
2022-08-05T22:16:51.869Z,102551.97
2022-08-05T22:20:03.255Z,102551.97
2022-08-05T22:22:06.904Z,102555.03
2022-08-05T22:28:09.743Z,102554.97
2022-08-05T22:30:34.929Z,102558.00
2022-08-05T22:33:02.555Z,102557.63
2022-08-05T22:35:31.253Z,102558.78
2022-08-05T22:38:14.817Z,102568.50
2022-08-05T22:46:08.769Z,102581.16
2022-08-05T22:48:41.750Z,102577.34
2022-08-05T22:51:16.077Z,102580.53
2022-08-05T22:53:51.007Z,102595.25
2022-08-05T22:56:29.853Z,102591.06
2022-08-05T22:58:58.533Z,102606.66
2022-08-05T23:01:50.691Z,102605.78
2022-08-05T23:04:17.829Z,102612.13
2022-08-05T23:06:44.375Z,102606.06
2022-08-05T23:09:27.121Z,102608.81
2022-08-05T23:11:58.551Z,102609.41
2022-08-05T23:14:31.828Z,102613.31
2022-08-05T23:17:18.632Z,102614.16
2022-08-05T23:19:56.494Z,102622.53
2022-08-05T23:22:27.406Z,102629.16
2022-08-05T23:27:57.621Z,102630.78
2022-08-05T23:30:27.041Z,102628.50
2022-08-05T23:32:55.709Z,102637.00
2022-08-05T23:35:24.277Z,102633.72
2022-08-05T23:37:55.258Z,102640.34
2022-08-05T23:40:27.146Z,102643.38
2022-08-05T23:42:54.296Z,102636.19
2022-08-05T23:48:03.127Z,102653.78
2022-08-05T23:50:31.128Z,102658.69
2022-08-05T23:55:38.367Z,102662.44
2022-08-05T23:58:08.015Z,102665.44
